createdAt,value
2022-12-15T00:02:35.332Z,79.90
2022-12-15T00:05:21.397Z,71.75
2022-12-15T00:08:06.721Z,79.85
2022-12-15T00:10:52.185Z,73.85
2022-12-15T00:13:38.684Z,66.30
2022-12-15T00:16:24.710Z,68.63
2022-12-15T00:19:12.396Z,70.68
2022-12-15T00:21:57.661Z,78.30
2022-12-15T00:24:42.995Z,65.50
2022-12-15T00:27:28.395Z,74.60
2022-12-15T00:30:15.857Z,74.10
2022-12-15T00:33:01.244Z,72.97
2022-12-15T00:35:46.546Z,75.57
2022-12-15T00:38:34.289Z,67.15
2022-12-15T00:41:01.751Z,69.07
2022-12-15T00:43:33.616Z,66.30
2022-12-15T00:46:21.621Z,69.00
2022-12-15T00:48:48.645Z,69.60
2022-12-15T00:51:16.114Z,72.90
2022-12-15T00:54:04.111Z,69.57
2022-12-15T00:56:50.275Z,65.03
2022-12-15T00:59:36.237Z,63.08
2022-12-15T01:02:22.877Z,64.97
2022-12-15T01:05:08.371Z,59.15
2022-12-15T01:07:53.840Z,70.00
2022-12-15T01:10:39.213Z,68.95
2022-12-15T01:13:25.115Z,68.30
2022-12-15T01:16:10.550Z,67.25
2022-12-15T01:18:57.013Z,62.53
2022-12-15T01:21:25.558Z,66.43
2022-12-15T01:23:53.659Z,60.80
2022-12-15T01:26:20.641Z,67.60
2022-12-15T01:28:49.408Z,72.78
2022-12-15T01:31:17.319Z,67.30
2022-12-15T01:33:44.127Z,62.67
2022-12-15T01:36:11.617Z,64.05
2022-12-15T01:38:38.486Z,66.00
2022-12-15T01:41:10.180Z,67.88
2022-12-15T01:43:39.495Z,66.07
2022-12-15T01:46:10.092Z,61.35
2022-12-15T01:48:48.936Z,63.00
2022-12-15T01:51:33.982Z,59.78
2022-12-15T01:54:17.424Z,58.97
2022-12-15T01:56:47.535Z,57.97
2022-12-15T01:59:19.753Z,57.55
2022-12-15T02:01:49.708Z,66.25
2022-12-15T02:04:21.017Z,64.95
2022-12-15T02:06:48.330Z,60.83
2022-12-15T02:09:18.788Z,60.65
2022-12-15T02:12:11.499Z,59.85
2022-12-15T02:15:13.257Z,53.67
2022-12-15T02:18:19.716Z,63.75
2022-12-15T02:21:01.195Z,59.53
2022-12-15T02:23:49.861Z,62.13
2022-12-15T02:26:37.981Z,61.15
2022-12-15T02:29:10.679Z,64.85
2022-12-15T02:31:52.384Z,58.35
2022-12-15T02:34:53.551Z,61.55
2022-12-15T02:37:32.085Z,59.00
2022-12-15T02:39:59.253Z,59.55
2022-12-15T02:42:28.497Z,56.60
2022-12-15T02:45:15.470Z,58.97
2022-12-15T02:47:54.900Z,60.00
2022-12-15T02:50:53.651Z,63.55
2022-12-15T02:53:54.084Z,61.70
2022-12-15T02:56:32.407Z,56.83
2022-12-15T02:59:11.066Z,59.65
2022-12-15T03:01:49.472Z,52.25
2022-12-15T03:04:18.093Z,55.75
2022-12-15T03:06:45.212Z,63.30
2022-12-15T03:09:12.545Z,67.57
2022-12-15T03:11:39.408Z,64.03
2022-12-15T03:14:06.628Z,58.97
2022-12-15T03:16:33.701Z,59.05
2022-12-15T03:19:00.643Z,58.50
2022-12-15T03:21:27.636Z,54.15
2022-12-15T03:23:56.429Z,64.10
2022-12-15T03:26:24.453Z,66.38
2022-12-15T03:28:51.275Z,57.83
2022-12-15T03:31:18.136Z,56.42
2022-12-15T03:33:45.037Z,53.13
2022-12-15T03:36:11.859Z,56.38
2022-12-15T03:38:39.681Z,55.75
2022-12-15T03:41:06.593Z,58.88
2022-12-15T03:43:34.146Z,57.53
2022-12-15T03:46:01.228Z,55.70
2022-12-15T03:48:28.287Z,54.35
2022-12-15T03:50:55.355Z,56.90
2022-12-15T03:53:23.315Z,53.88
2022-12-15T03:55:51.136Z,53.90
2022-12-15T03:58:19.022Z,54.63
2022-12-15T04:00:45.879Z,59.95
2022-12-15T04:03:12.990Z,54.15
2022-12-15T04:05:41.147Z,53.83
2022-12-15T04:08:09.062Z,57.53
2022-12-15T04:10:36.063Z,56.83
2022-12-15T04:13:06.675Z,54.50
2022-12-15T04:15:36.325Z,56.55
2022-12-15T04:18:06.261Z,53.63
2022-12-15T04:20:33.551Z,52.75
2022-12-15T04:23:00.730Z,65.80
2022-12-15T04:25:47.357Z,56.63
2022-12-15T04:28:33.080Z,53.97
2022-12-15T04:31:25.510Z,58.80
2022-12-15T04:34:14.385Z,50.60
2022-12-15T04:37:03.484Z,62.55
2022-12-15T04:39:49.177Z,57.08
2022-12-15T04:42:35.027Z,59.42
2022-12-15T04:45:24.326Z,53.63
2022-12-15T04:48:11.421Z,57.75
2022-12-15T04:50:57.472Z,55.03
2022-12-15T04:53:43.084Z,54.45
2022-12-15T04:56:31.099Z,53.92
2022-12-15T04:59:18.560Z,59.75
2022-12-15T05:02:03.958Z,59.78
2022-12-15T05:04:49.774Z,55.53
2022-12-15T05:07:36.152Z,55.00
2022-12-15T05:10:22.514Z,59.45
2022-12-15T05:13:07.931Z,63.47
2022-12-15T05:15:53.774Z,53.38
2022-12-15T05:18:39.514Z,54.72
2022-12-15T05:21:25.777Z,57.00
2022-12-15T05:24:12.135Z,53.35
2022-12-15T05:26:57.386Z,60.88
2022-12-15T05:29:44.560Z,56.60
2022-12-15T05:32:13.257Z,60.55
2022-12-15T05:34:40.102Z,55.05
2022-12-15T05:37:07.896Z,53.40
2022-12-15T05:39:35.148Z,53.35
2022-12-15T05:42:02.044Z,57.03
2022-12-15T05:44:29.940Z,55.50
2022-12-15T05:46:57.983Z,59.88
2022-12-15T05:49:25.928Z,53.90
2022-12-15T05:51:53.801Z,53.20
2022-12-15T05:54:21.348Z,51.10
2022-12-15T05:56:50.026Z,50.45
2022-12-15T05:59:17.823Z,55.25
2022-12-15T06:01:45.128Z,55.40
2022-12-15T06:04:16.764Z,57.03
2022-12-15T06:06:43.907Z,39.03
2022-12-15T06:09:12.048Z,54.17
2022-12-15T06:11:39.181Z,51.75
2022-12-15T06:14:08.664Z,54.55
2022-12-15T06:16:42.585Z,54.40
2022-12-15T06:19:19.336Z,59.40
2022-12-15T06:21:46.322Z,54.80
2022-12-15T06:24:14.403Z,60.47
2022-12-15T06:26:41.501Z,55.85
2022-12-15T06:29:10.734Z,57.83
2022-12-15T06:31:39.909Z,54.78
2022-12-15T06:34:13.559Z,64.60
2022-12-15T06:36:40.480Z,52.55
2022-12-15T06:39:11.420Z,54.03
2022-12-15T06:41:40.107Z,57.25
2022-12-15T06:44:07.739Z,56.35
2022-12-15T06:46:35.752Z,53.80
2022-12-15T06:49:03.264Z,56.45
2022-12-15T06:51:31.216Z,63.42
2022-12-15T06:53:59.083Z,59.97
2022-12-15T06:56:34.422Z,54.53
2022-12-15T06:59:03.545Z,59.17
2022-12-15T07:01:31.188Z,57.55
2022-12-15T07:04:03.429Z,59.05
2022-12-15T07:06:39.037Z,58.88
2022-12-15T07:09:12.461Z,53.13
2022-12-15T07:11:44.147Z,54.85
2022-12-15T07:14:12.138Z,43.20
2022-12-15T07:16:39.241Z,54.97
2022-12-15T07:19:06.202Z,51.85
2022-12-15T07:21:34.128Z,55.35
2022-12-15T07:24:02.756Z,54.60
2022-12-15T07:26:30.540Z,57.55
2022-12-15T07:28:57.592Z,51.97
2022-12-15T07:31:26.655Z,56.05
2022-12-15T07:33:55.658Z,57.22
2022-12-15T07:36:23.626Z,55.92
2022-12-15T07:38:51.988Z,56.08
2022-12-15T07:41:21.066Z,64.50
2022-12-15T07:43:48.565Z,62.03
2022-12-15T07:46:16.536Z,56.38
2022-12-15T07:48:43.515Z,56.90
2022-12-15T07:51:18.828Z,54.70
2022-12-15T07:53:49.753Z,66.63
2022-12-15T07:56:19.382Z,66.28
2022-12-15T07:58:46.783Z,61.95
2022-12-15T08:01:14.897Z,69.30
2022-12-15T08:03:43.328Z,63.55
2022-12-15T08:06:14.950Z,64.90
2022-12-15T08:08:43.311Z,62.20
2022-12-15T08:11:14.305Z,63.97
2022-12-15T08:16:31.055Z,61.40
2022-12-15T08:18:57.954Z,60.38
2022-12-15T08:21:26.003Z,48.60
2022-12-15T08:23:53.094Z,51.85
2022-12-15T08:26:29.804Z,52.20
2022-12-15T08:29:11.743Z,54.38
2022-12-15T08:31:45.762Z,48.78
2022-12-15T08:34:14.653Z,54.25
2022-12-15T08:36:41.541Z,55.20
2022-12-15T08:39:08.422Z,50.13
2022-12-15T08:41:35.415Z,56.35
2022-12-15T08:44:03.776Z,48.40
2022-12-15T08:46:34.065Z,44.45
2022-12-15T08:49:02.614Z,58.20
2022-12-15T08:51:31.128Z,57.83
2022-12-15T08:53:59.267Z,49.40
2022-12-15T08:56:27.792Z,45.05
2022-12-15T08:58:57.288Z,44.97
2022-12-15T09:01:27.038Z,46.67
2022-12-15T09:03:56.397Z,50.33
2022-12-15T09:06:27.352Z,49.10
2022-12-15T09:08:59.603Z,52.80
2022-12-15T09:11:27.798Z,49.92
2022-12-15T09:13:54.905Z,45.33
2022-12-15T09:16:23.627Z,46.15
2022-12-15T09:18:54.520Z,53.13
2022-12-15T09:21:24.058Z,51.78
2022-12-15T09:23:52.175Z,50.08
2022-12-15T09:26:22.833Z,76.60
2022-12-15T09:28:51.011Z,70.05
2022-12-15T09:31:22.306Z,106.78
2022-12-15T09:33:53.387Z,118.03
2022-12-15T09:36:20.364Z,114.15
2022-12-15T09:38:47.372Z,78.65
2022-12-15T09:41:24.482Z,68.40
2022-12-15T09:44:12.576Z,70.72
2022-12-15T09:47:05.958Z,70.13
2022-12-15T09:49:55.878Z,65.18
2022-12-15T09:52:28.010Z,74.85
2022-12-15T09:54:55.942Z,64.60
2022-12-15T09:57:37.650Z,62.50
2022-12-15T10:00:21.851Z,66.10
2022-12-15T10:03:28.571Z,66.95
2022-12-15T10:06:18.977Z,58.55
2022-12-15T10:08:54.854Z,65.20
2022-12-15T10:11:55.523Z,58.25
2022-12-15T10:14:27.587Z,71.40
2022-12-15T10:17:06.393Z,64.25
2022-12-15T10:19:52.029Z,68.43
2022-12-15T10:22:25.762Z,60.00
2022-12-15T10:25:11.075Z,57.30
2022-12-15T10:28:06.932Z,53.45
2022-12-15T10:30:35.334Z,49.30
2022-12-15T10:33:26.183Z,52.85
2022-12-15T10:35:55.976Z,48.45
2022-12-15T10:38:42.590Z,56.92
2022-12-15T10:41:12.738Z,46.53
2022-12-15T10:43:42.466Z,51.00
2022-12-15T10:46:18.655Z,52.17
2022-12-15T10:48:49.977Z,44.33
2022-12-15T10:51:21.953Z,52.83
2022-12-15T10:53:55.490Z,48.50
2022-12-15T10:56:33.257Z,42.38
2022-12-15T10:59:23.157Z,45.67
2022-12-15T11:01:52.313Z,47.03
2022-12-15T11:04:31.379Z,45.17
2022-12-15T11:07:00.918Z,45.13
2022-12-15T11:09:39.107Z,52.33
2022-12-15T11:12:40.003Z,45.92
2022-12-15T11:15:31.352Z,49.60
2022-12-15T11:18:29.542Z,48.30
2022-12-15T11:21:00.927Z,40.65
2022-12-15T11:24:09.502Z,44.33
2022-12-15T11:26:56.825Z,40.75
2022-12-15T11:29:34.818Z,39.08
2022-12-15T11:32:07.011Z,40.67
2022-12-15T11:34:42.481Z,41.63
2022-12-15T11:37:36.283Z,38.40
2022-12-15T11:40:43.221Z,37.28
2022-12-15T11:43:40.874Z,43.38
2022-12-15T11:46:21.341Z,37.42
2022-12-15T11:49:06.282Z,40.28
2022-12-15T11:51:42.501Z,40.53
2022-12-15T11:54:39.694Z,41.55
2022-12-15T11:57:39.124Z,39.72
2022-12-15T12:00:09.257Z,40.28
2022-12-15T12:03:18.211Z,37.83
2022-12-15T12:06:13.389Z,38.05
2022-12-15T12:09:07.026Z,35.13
2022-12-15T12:12:24.599Z,41.85
2022-12-15T12:15:08.912Z,36.00
2022-12-15T12:17:43.897Z,39.03
2022-12-15T12:20:25.146Z,38.58
2022-12-15T12:23:15.390Z,41.67
2022-12-15T12:25:51.981Z,52.53
2022-12-15T12:29:01.914Z,45.78
2022-12-15T12:31:45.644Z,63.00
2022-12-15T12:34:21.530Z,56.05
2022-12-15T12:36:50.028Z,69.57
2022-12-15T12:39:21.107Z,53.72
2022-12-15T12:42:16.128Z,70.68
2022-12-15T12:44:46.537Z,71.50
2022-12-15T12:47:28.070Z,64.00
2022-12-15T12:50:18.825Z,71.32
2022-12-15T12:52:52.776Z,71.75
2022-12-15T12:55:49.685Z,77.03
2022-12-15T12:58:38.354Z,76.22
2022-12-15T13:01:05.252Z,71.22
2022-12-15T13:03:32.577Z,69.90
2022-12-15T13:06:21.939Z,72.72
2022-12-15T13:08:55.822Z,77.18
2022-12-15T13:11:53.699Z,59.85
2022-12-15T13:14:34.810Z,65.45
2022-12-15T13:17:29.016Z,57.53
2022-12-15T13:19:59.281Z,61.65
2022-12-15T13:22:42.079Z,60.80
2022-12-15T13:25:41.362Z,50.47
2022-12-15T13:28:36.280Z,49.63
2022-12-15T13:31:21.767Z,43.25
2022-12-15T13:33:54.886Z,44.92
2022-12-15T13:36:37.101Z,34.25
2022-12-15T13:39:27.834Z,39.55
2022-12-15T13:44:55.073Z,38.35
2022-12-15T13:47:28.783Z,37.30
2022-12-15T13:50:03.253Z,36.63
2022-12-15T13:55:38.365Z,31.98
2022-12-15T13:58:18.040Z,29.17
2022-12-15T14:00:53.631Z,31.90
2022-12-15T14:03:20.949Z,32.05
2022-12-15T14:05:59.524Z,36.53
2022-12-15T14:08:29.739Z,35.78
2022-12-15T14:11:00.053Z,40.20
2022-12-15T14:13:31.907Z,45.22
2022-12-15T14:16:28.342Z,40.15
2022-12-15T14:19:17.491Z,49.65
2022-12-15T14:21:59.452Z,41.92
2022-12-15T14:24:40.422Z,36.00
2022-12-15T14:27:08.968Z,48.40
2022-12-15T14:29:36.035Z,45.05
2022-12-15T14:32:03.602Z,53.08
2022-12-15T14:34:41.774Z,54.88
2022-12-15T14:37:18.991Z,50.75
2022-12-15T14:39:50.441Z,58.22
2022-12-15T14:42:27.820Z,59.05
2022-12-15T14:44:58.365Z,57.13
2022-12-15T14:47:30.339Z,64.68
2022-12-15T14:50:04.566Z,60.07
2022-12-15T14:52:38.909Z,73.57
2022-12-15T14:55:27.741Z,56.50
2022-12-15T14:57:54.568Z,56.45
2022-12-15T15:00:26.151Z,46.10
2022-12-15T15:03:18.884Z,39.03
2022-12-15T15:06:12.692Z,44.35
2022-12-15T15:11:36.853Z,47.90
2022-12-15T15:14:11.186Z,50.95
2022-12-15T15:16:38.283Z,50.67
2022-12-15T15:19:05.576Z,39.72
2022-12-15T15:21:39.052Z,43.28
2022-12-15T15:24:12.165Z,39.17
2022-12-15T15:26:43.137Z,42.58
2022-12-15T15:29:41.029Z,44.95
2022-12-15T15:32:22.261Z,45.20
2022-12-15T15:34:49.540Z,46.83
2022-12-15T15:37:25.908Z,44.97
2022-12-15T15:39:55.035Z,45.25
2022-12-15T15:42:25.442Z,48.97
2022-12-15T15:44:57.257Z,42.45
2022-12-15T15:47:25.459Z,42.33
2022-12-15T15:49:54.744Z,43.90
2022-12-15T15:52:22.313Z,52.63
2022-12-15T15:54:49.636Z,52.55
2022-12-15T15:57:19.130Z,44.20
2022-12-15T15:59:46.988Z,48.95
2022-12-15T16:02:15.548Z,49.22
2022-12-15T16:04:44.008Z,51.50
2022-12-15T16:07:23.468Z,48.35
2022-12-15T16:09:51.633Z,46.28
2022-12-15T16:12:31.048Z,49.85
2022-12-15T16:14:57.878Z,55.42
2022-12-15T16:17:25.764Z,52.92
2022-12-15T16:19:52.610Z,53.55
2022-12-15T16:22:21.376Z,54.38
2022-12-15T16:24:48.739Z,52.65
2022-12-15T16:27:16.314Z,52.30
2022-12-15T16:29:43.595Z,55.28
2022-12-15T16:32:12.459Z,57.53
2022-12-15T16:34:39.440Z,56.67
2022-12-15T16:37:09.012Z,57.35
2022-12-15T16:39:36.423Z,62.75
2022-12-15T16:42:12.119Z,60.17
2022-12-15T16:44:38.953Z,51.67
2022-12-15T16:47:05.789Z,52.33
2022-12-15T16:49:39.851Z,52.92
2022-12-15T16:52:24.422Z,58.42
2022-12-15T16:54:51.386Z,60.80
2022-12-15T16:57:18.568Z,55.35
2022-12-15T16:59:46.261Z,57.47
2022-12-15T17:02:28.894Z,58.17
2022-12-15T17:04:58.268Z,66.03
2022-12-15T17:07:27.702Z,65.90
2022-12-15T17:09:56.531Z,71.65
2022-12-15T17:12:25.155Z,73.25
2022-12-15T17:14:52.099Z,68.45
2022-12-15T17:17:20.069Z,75.47
2022-12-15T17:20:19.879Z,74.57
2022-12-15T17:22:36.746Z,74.70
2022-12-15T17:25:05.030Z,76.15
2022-12-15T17:27:33.052Z,152.85
2022-12-15T17:30:01.918Z,112.97
2022-12-15T17:32:28.843Z,83.55
2022-12-15T17:34:55.874Z,92.03
2022-12-15T17:37:28.017Z,98.43
2022-12-15T17:39:58.428Z,101.13
2022-12-15T17:42:28.463Z,88.03
2022-12-15T17:44:57.359Z,83.13
2022-12-15T17:47:25.641Z,82.18
2022-12-15T17:49:55.126Z,86.38
2022-12-15T17:52:30.494Z,72.65
2022-12-15T17:55:03.231Z,78.20
2022-12-15T17:57:33.402Z,73.32
2022-12-15T18:00:02.926Z,69.10
2022-12-15T18:02:49.963Z,64.55
2022-12-15T18:05:18.879Z,71.47
2022-12-15T18:07:49.480Z,66.82
2022-12-15T18:10:43.755Z,62.10
2022-12-15T18:13:41.930Z,67.15
2022-12-15T18:16:10.347Z,70.30
2022-12-15T18:18:38.402Z,75.68
2022-12-15T18:21:15.440Z,70.57
2022-12-15T18:23:46.426Z,72.18
2022-12-15T18:26:14.729Z,68.75
2022-12-15T18:28:41.766Z,66.35
2022-12-15T18:31:27.574Z,69.57
2022-12-15T18:34:00.953Z,62.75
2022-12-15T18:36:31.299Z,56.83
2022-12-15T18:38:59.419Z,65.85
2022-12-15T18:41:28.331Z,70.55
2022-12-15T18:43:58.588Z,56.42
2022-12-15T18:46:28.576Z,72.15
2022-12-15T18:48:56.544Z,67.78
2022-12-15T18:51:23.979Z,63.50
2022-12-15T18:53:54.218Z,86.95
2022-12-15T18:56:21.743Z,74.20
2022-12-15T18:58:48.764Z,65.63
2022-12-15T19:01:19.351Z,66.38
2022-12-15T19:03:50.281Z,68.88
2022-12-15T19:06:34.847Z,60.17
2022-12-15T19:09:14.577Z,61.30
2022-12-15T19:12:03.213Z,62.42
2022-12-15T19:14:42.846Z,59.50
2022-12-15T19:17:44.757Z,57.85
2022-12-15T19:20:37.887Z,52.58
2022-12-15T19:25:33.018Z,50.63
2022-12-15T19:28:01.721Z,54.08
2022-12-15T19:30:31.546Z,59.90
2022-12-15T19:32:58.557Z,69.18
2022-12-15T19:35:31.370Z,61.72
2022-12-15T19:38:01.877Z,75.47
2022-12-15T19:40:32.316Z,66.03
2022-12-15T19:43:00.937Z,64.95
2022-12-15T19:45:31.904Z,59.92
2022-12-15T19:47:59.778Z,60.03
2022-12-15T19:50:30.955Z,53.05
2022-12-15T19:53:03.608Z,58.00
2022-12-15T19:58:21.021Z,51.00
2022-12-15T20:00:52.058Z,56.85
2022-12-15T20:03:20.827Z,53.10
2022-12-15T20:05:53.396Z,52.97
2022-12-15T20:08:23.979Z,60.10
2022-12-15T20:10:52.466Z,62.35
2022-12-15T20:13:21.409Z,74.70
2022-12-15T20:15:50.360Z,81.32
2022-12-15T20:18:19.361Z,69.00
2022-12-15T20:20:49.249Z,80.60
2022-12-15T20:23:25.954Z,68.03
2022-12-15T20:25:56.058Z,67.80
2022-12-15T20:28:27.723Z,68.07
2022-12-15T20:31:05.392Z,85.93
2022-12-15T20:33:32.793Z,129.88
2022-12-15T20:36:00.951Z,103.28
2022-12-15T20:38:35.773Z,105.50
2022-12-15T20:41:04.183Z,101.03
2022-12-15T20:43:35.315Z,79.40
2022-12-15T20:46:14.596Z,73.10
2022-12-15T20:48:44.879Z,74.63
2022-12-15T20:51:39.232Z,80.82
2022-12-15T20:54:13.257Z,68.22
2022-12-15T20:56:42.983Z,84.32
2022-12-15T20:59:10.577Z,82.57
2022-12-15T21:01:41.700Z,81.00
2022-12-15T21:04:29.749Z,99.38
2022-12-15T21:06:59.019Z,88.70
2022-12-15T21:09:26.981Z,77.85
2022-12-15T21:11:55.154Z,80.75
2022-12-15T21:14:24.260Z,81.28
2022-12-15T21:16:51.438Z,87.03
2022-12-15T21:19:20.915Z,80.70
2022-12-15T21:21:54.908Z,75.03
2022-12-15T21:24:28.453Z,72.22
2022-12-15T21:26:56.416Z,76.53
2022-12-15T21:29:29.592Z,74.78
2022-12-15T21:32:17.108Z,74.93
2022-12-15T21:34:49.048Z,80.93
2022-12-15T21:37:28.591Z,52.95
2022-12-15T21:39:56.504Z,79.45
2022-12-15T21:42:23.958Z,80.80
2022-12-15T21:44:50.973Z,77.05
2022-12-15T21:47:24.879Z,82.97
2022-12-15T21:49:52.853Z,81.60
2022-12-15T21:52:21.206Z,83.47
2022-12-15T21:54:48.134Z,83.63
2022-12-15T21:57:16.071Z,87.72
2022-12-15T21:59:44.301Z,81.35
2022-12-15T22:02:24.551Z,81.65
2022-12-15T22:04:52.549Z,81.47
2022-12-15T22:07:20.534Z,79.25
2022-12-15T22:09:49.704Z,80.70
2022-12-15T22:12:23.282Z,83.90
2022-12-15T22:14:52.233Z,80.18
2022-12-15T22:17:22.260Z,73.35
2022-12-15T22:19:50.186Z,80.85
2022-12-15T22:22:17.527Z,79.20
2022-12-15T22:24:45.561Z,73.88
2022-12-15T22:27:21.044Z,78.75
2022-12-15T22:29:50.199Z,76.25
2022-12-15T22:32:17.891Z,83.07
2022-12-15T22:34:45.027Z,77.93
2022-12-15T22:37:12.996Z,77.22
2022-12-15T22:39:40.159Z,75.10
2022-12-15T22:42:07.356Z,73.22
2022-12-15T22:44:37.570Z,72.95
2022-12-15T22:47:06.249Z,74.50
2022-12-15T22:49:38.230Z,74.80
2022-12-15T22:52:19.573Z,77.43
2022-12-15T22:54:47.822Z,75.75
2022-12-15T22:57:23.922Z,77.32
2022-12-15T23:00:00.721Z,78.75
2022-12-15T23:02:31.317Z,66.35
2022-12-15T23:04:58.387Z,70.32
2022-12-15T23:07:26.118Z,68.82
2022-12-15T23:10:14.550Z,73.13
2022-12-15T23:12:41.691Z,66.30
2022-12-15T23:15:27.675Z,70.45
2022-12-15T23:17:56.782Z,67.72
2022-12-15T23:20:24.699Z,60.38
2022-12-15T23:22:53.736Z,59.60
2022-12-15T23:25:21.846Z,57.22
2022-12-15T23:27:50.187Z,55.25
2022-12-15T23:30:17.814Z,60.45
2022-12-15T23:32:44.838Z,58.05
2022-12-15T23:35:11.796Z,63.72
2022-12-15T23:37:38.920Z,60.17
2022-12-15T23:40:07.823Z,63.33
2022-12-15T23:42:35.793Z,63.63
2022-12-15T23:45:04.587Z,58.35
2022-12-15T23:47:32.059Z,61.10
2022-12-15T23:49:59.216Z,57.33
2022-12-15T23:52:28.634Z,59.67
2022-12-15T23:54:55.455Z,64.28
2022-12-15T23:57:24.661Z,54.50
2022-12-15T23:59:51.733Z,54.75
